Latest Weather Observations for Kingfish B

IDV60801

Issued at 9:31 pm EST Wednesday 29 July 2015 (issued every 30 minutes, with the page automatically refreshed every 10 minutes)

About weather observations | Map of weather stations | Latest weather observations for VIC | Other Formats
Station Details ID: 400139 Name: KINGFISH B (PLATFORM) Lat: -38.60 Lon: 148.19 Height: 31.4 m
Data from the previous 72 hours. | See also: Recent months for locations in Victoria
Date/Time
EST
Temp
°C
App
Temp
°C
Dew
Point
Rel
Hum
%
Delta-T
°C
Wind Press
QNH
hPa
Press
MSL
hPa
Rain
since 9 am
mm
Dir
 
Spd
km/h
Gust
km/h
Spd
kts
Gust
kts
29/08:10pm 12.5 10.4 4.0 56 3.8 NNE 4 7 2 4 1027.8 - -
29/08:00pm 12.6 10.6 4.3 57 3.8 NNE 4 7 2 4 1027.8 - -
29/07:50pm 12.6 10.6 4.4 57 3.7 N 4 7 2 4 1027.8 - -
29/07:40pm 12.6 10.6 4.6 58 3.7 NNE 4 7 2 4 1027.9 - -
29/07:30pm 12.7 10.8 4.9 59 3.6 NNE 4 7 2 4 1027.8 - -
29/07:20pm 12.7 10.8 4.9 59 3.6 NNE 4 7 2 4 1027.9 - -
29/07:10pm 12.6 10.7 4.9 59 3.5 NNE 4 7 2 4 1027.9 - -
29/07:00pm 12.5 10.6 4.7 59 3.6 NNE 4 7 2 4 1028.1 - -
29/06:50pm 12.4 10.5 4.7 59 3.5 NNE 4 6 2 3 1028.1 - -
29/06:40pm 12.5 11.0 4.9 60 3.5 NNE 2 6 1 3 1028.2 - -
29/06:10pm 12.4 10.8 4.6 59 3.6 NNE 2 6 1 3 1028.2 - -
29/06:00pm 12.6 11.1 4.9 59 3.5 NNE 2 6 1 3 1028.3 - -
29/05:50pm 12.9 11.8 5.1 59 3.6 CALM 0 6 0 3 1028.3 - -
29/05:40pm 13.0 11.9 5.1 58 3.7 CALM 0 0 0 0 1028.3 - -
29/05:30pm 13.4 12.3 5.1 57 3.9 CALM 0 2 0 1 1028.3 - -
29/05:20pm 13.7 12.7 5.6 58 3.8 CALM 0 2 0 1 1028.3 - -
29/04:40pm 12.2 11.0 4.6 59 3.5 CALM 0 4 0 2 1028.4 - -
29/04:30pm 12.1 10.5 4.4 59 3.5 WSW 2 6 1 3 1028.4 - -
29/04:20pm 12.2 10.6 4.6 59 3.5 WSW 2 4 1 2 1028.3 - -
29/04:10pm 12.2 10.7 4.8 60 3.4 WSW 2 4 1 2 1028.2 - -
29/04:00pm 12.2 10.7 4.9 61 3.4 WSW 2 4 1 2 1028.3 - -
29/03:50pm 12.2 10.7 5.1 62 3.3 WSW 2 6 1 3 1028.3 - -
29/03:40pm 12.3 10.9 5.4 63 3.2 WSW 2 6 1 3 1028.4 - -
29/03:30pm 12.4 10.6 5.3 62 3.3 WSW 4 7 2 4 1028.4 - -
29/03:20pm 12.5 10.3 5.1 60 3.4 WSW 6 9 3 5 1028.6 - -
29/03:10pm 12.6 10.3 5.0 60 3.5 WSW 6 9 3 5 1028.7 - -
29/03:00pm 12.6 10.3 5.0 60 3.5 WSW 6 11 3 6 1028.7 - -
29/02:50pm 12.7 10.4 5.0 59 3.6 WSW 6 9 3 5 1028.6 - -
29/02:40pm 12.9 10.6 5.0 58 3.7 WSW 6 9 3 5 1028.7 - -
29/02:30pm 13.1 10.8 5.5 60 3.6 WSW 7 9 4 5 1028.8 - -
29/02:20pm 13.0 10.8 5.4 60 3.5 W 6 7 3 4 1028.8 - -
29/02:10pm 13.1 11.0 5.6 60 3.5 W 6 9 3 5 1028.8 - -
29/02:00pm 12.9 10.8 5.6 61 3.4 W 6 9 3 5 1028.8 - -
29/01:50pm 12.9 10.6 5.7 61 3.4 W 7 11 4 6 1028.9 - -
29/01:40pm 13.1 10.4 5.6 60 3.5 W 9 11 5 6 1029.0 - -
29/01:30pm 13.0 10.2 5.3 59 3.6 W 9 11 5 6 1029.1 - -
29/01:20pm 13.1 10.0 5.4 59 3.6 W 11 15 6 8 1029.2 - -
29/01:10pm 13.1 10.0 5.4 59 3.6 W 11 15 6 8 1029.3 - -
29/01:00pm 13.4 10.3 5.6 59 3.7 W 11 19 6 10 1029.4 - -
29/12:50pm 13.5 10.5 6.1 61 3.5 W 11 13 6 7 1029.6 - -
29/12:40pm 13.5 10.6 6.3 61 3.4 W 11 13 6 7 1029.7 - -
29/12:30pm 13.4 10.2 6.7 64 3.2 W 13 20 7 11 1029.8 - -
29/12:20pm 13.5 10.2 6.5 62 3.4 W 13 17 7 9 1029.9 - -
29/12:10pm 13.7 10.4 6.5 62 3.5 W 13 17 7 9 1030.0 - -
29/12:00pm 13.7 10.5 6.7 62 3.4 W 13 17 7 9 1030.2 - -
29/11:50am 13.6 10.7 6.6 62 3.4 W 11 19 6 10 1030.3 - -
29/11:40am 13.8 10.6 6.9 63 3.3 W 13 17 7 9 1030.5 - -
29/11:30am 13.7 10.5 6.9 63 3.3 W 13 19 7 10 1030.7 - -
29/11:20am 13.6 10.4 6.9 64 3.2 W 13 17 7 9 1030.7 - -
29/11:10am 13.8 10.7 7.3 65 3.2 W 13 17 7 9 1030.9 - -
29/11:00am 13.7 10.6 7.2 65 3.2 W 13 17 7 9 1031.1 - -
29/10:50am 13.6 10.5 7.2 65 3.1 W 13 17 7 9 1031.2 - -
29/10:40am 13.7 10.7 7.6 66 3.0 W 13 17 7 9 1031.4 - -
29/10:30am 13.6 10.6 7.6 67 3.0 W 13 17 7 9 1031.6 - -
29/10:20am 13.6 10.6 7.5 66 3.0 W 13 17 7 9 1031.8 - -
29/10:10am 13.6 10.6 7.5 66 3.0 W 13 17 7 9 1032.0 - -
29/10:00am 13.7 10.7 7.5 66 3.0 W 13 17 7 9 1032.2 - -
29/09:50am 13.6 10.5 7.4 66 3.0 W 13 19 7 10 1032.2 - -
29/09:40am 13.4 9.9 7.2 66 3.0 W 15 17 8 9 1032.4 - -
29/09:30am 13.4 9.9 7.2 66 3.0 W 15 19 8 10 1032.4 - -
29/09:20am 13.7 9.9 7.4 65 3.1 W 17 20 9 11 1032.6 - -
29/09:10am 13.7 9.8 7.3 65 3.1 WNW 17 20 9 11 1032.6 - -
29/09:00am 13.7 9.9 7.4 65 3.1 WNW 17 20 9 11 1032.6 - -
29/08:50am 13.7 9.5 7.5 66 3.0 WNW 19 22 10 12 1032.6 - -
29/08:40am 13.6 9.8 7.6 67 3.0 WNW 17 20 9 11 1032.6 - -
29/08:30am 13.6 9.5 7.7 67 2.9 WNW 19 20 10 11 1032.7 - -
29/08:20am 13.6 9.8 7.7 67 2.9 WNW 17 22 9 12 1032.6 - -
29/08:00am 13.6 9.8 7.7 67 2.9 WNW 17 19 9 10 1032.5 - -
29/07:50am 13.6 10.2 7.8 68 2.9 WNW 15 20 8 11 1032.5 - -
29/07:40am 13.5 10.1 7.8 68 2.8 WNW 15 20 8 11 1032.5 - -
29/07:30am 13.4 9.7 7.9 69 2.7 WNW 17 20 9 11 1032.6 - -
29/07:20am 13.3 9.6 7.9 70 2.7 WNW 17 22 9 12 1032.6 - -
29/07:10am 13.1 9.4 8.0 71 2.5 WNW 17 20 9 11 1032.7 - -
29/07:00am 12.8 9.5 8.0 72 2.4 WNW 15 19 8 10 1032.7 - -
29/06:50am 12.5 9.2 7.9 73 2.3 W 15 19 8 10 1032.6 - -
29/06:40am 12.3 8.9 7.8 74 2.2 WNW 15 19 8 10 1032.5 - -
29/06:30am 12.1 8.3 7.6 74 2.2 W 17 20 9 11 1032.5 - -
29/06:20am 12.2 8.1 7.8 74 2.2 W 19 22 10 12 1032.4 - -
29/06:10am 12.2 8.5 7.9 75 2.1 W 17 20 9 11 1032.3 - -
29/06:00am 12.0 8.2 7.7 75 2.1 W 17 20 9 11 1032.1 - -
29/05:50am 12.0 7.7 7.7 75 2.1 W 20 24 11 13 1032.0 - -
29/05:40am 12.0 7.3 7.7 75 2.1 W 22 24 12 13 1031.9 - -
29/05:30am 12.2 7.9 7.8 74 2.2 W 20 26 11 14 1031.8 - -
29/05:20am 12.2 8.1 7.8 74 2.2 W 19 22 10 12 1031.8 - -
29/05:10am 12.2 8.5 7.8 74 2.2 W 17 20 9 11 1031.6 - -
29/05:00am 12.2 8.5 7.8 74 2.2 W 17 20 9 11 1031.5 - -
29/04:50am 12.3 9.0 7.9 74 2.2 W 15 19 8 10 1031.5 - -
29/04:40am 12.3 8.6 7.8 74 2.2 W 17 22 9 12 1031.5 - -
29/04:30am 12.4 8.6 7.6 72 2.3 W 17 20 9 11 1031.5 - -
29/04:20am 12.5 8.7 7.4 71 2.5 W 17 22 9 12 1031.5 - -
29/04:10am 12.4 8.1 7.2 70 2.5 WSW 19 24 10 13 1031.4 - -
29/04:00am 12.5 8.2 7.2 70 2.6 WSW 19 24 10 13 1031.5 - -
29/03:50am 12.5 8.2 7.2 70 2.6 W 19 22 10 12 1031.6 - -
29/03:40am 12.4 8.0 7.2 70 2.5 W 20 24 11 13 1031.6 - -
29/03:30am 12.3 8.1 7.3 71 2.4 W 19 22 10 12 1031.6 - -
29/03:20am 12.3 8.1 7.5 72 2.3 WSW 19 20 10 11 1031.5 - -
29/03:10am 12.3 8.5 7.6 73 2.3 W 17 22 9 12 1031.5 - -
29/03:00am 12.3 8.1 7.6 73 2.3 W 19 22 10 12 1031.5 - -
29/02:50am 12.3 8.2 7.7 73 2.2 W 19 20 10 11 1031.5 - -
29/02:40am 12.3 8.2 7.8 74 2.2 W 19 22 10 12 1031.6 - -
29/02:30am 12.2 8.5 7.8 74 2.2 W 17 22 9 12 1031.6 - -
29/02:20am 12.2 8.1 7.8 74 2.2 WSW 19 22 10 12 1031.5 - -
29/02:10am 12.2 8.1 7.8 74 2.2 W 19 22 10 12 1031.6 - -
29/02:00am 12.1 8.0 7.8 75 2.1 W 19 22 10 12 1031.6 - -
29/01:50am 12.1 8.0 7.8 75 2.1 WSW 19 24 10 13 1031.7 - -
29/01:40am 12.1 7.8 7.8 75 2.1 WSW 20 26 11 14 1031.7 - -
29/01:30am 12.1 7.4 7.8 75 2.1 WSW 22 26 12 14 1031.8 - -
29/01:20am 12.1 7.4 7.7 74 2.1 WSW 22 26 12 14 1031.8 - -
29/01:10am 12.1 7.4 7.7 74 2.1 WSW 22 28 12 15 1031.8 - -
29/01:00am 12.1 7.4 7.7 74 2.1 WSW 22 26 12 14 1031.8 - -
29/12:50am 12.1 7.4 7.7 74 2.1 WSW 22 26 12 14 1031.9 - -
29/12:40am 12.0 7.3 7.7 75 2.1 WSW 22 26 12 14 1032.0 - -
29/12:30am 12.0 7.3 7.7 75 2.1 WSW 22 26 12 14 1032.0 - -
29/12:20am 12.1 7.4 7.8 75 2.1 WSW 22 26 12 14 1032.0 - -
29/12:10am 12.1 7.4 7.8 75 2.1 WSW 22 26 12 14 1032.1 - -
29/12:00am 12.1 7.0 7.8 75 2.1 WSW 24 28 13 15 1032.1 - -
 
Date/Time
EST
Temp
°C
App
Temp
°C
Dew
Point
Rel
Hum
%
Delta-T
°C
Wind Press
QNH
hPa
Press
MSL
hPa
Rain
since 9 am
mm
Dir
 
Spd
km/h
Gust
km/h
Spd
kts
Gust
kts
28/11:50pm 12.0 6.9 7.8 75 2.1 WSW 24 28 13 15 1032.2 - -
28/11:40pm 12.1 7.0 7.8 75 2.1 WSW 24 28 13 15 1032.3 - -
28/11:30pm 12.1 7.0 7.8 75 2.1 WSW 24 30 13 16 1032.3 - -
28/11:20pm 12.1 7.0 7.8 75 2.1 WSW 24 28 13 15 1032.4 - -
28/11:10pm 12.1 7.0 7.8 75 2.1 WSW 24 26 13 14 1032.4 - -
28/11:00pm 12.0 6.9 7.7 75 2.1 WSW 24 30 13 16 1032.3 - -
28/10:50pm 12.0 6.5 7.7 75 2.1 WSW 26 32 14 17 1032.2 - -
28/10:40pm 12.1 6.7 7.8 75 2.1 WSW 26 32 14 17 1032.2 - -
28/10:30pm 12.0 6.6 7.8 75 2.1 WSW 26 30 14 16 1032.3 - -
28/10:20pm 12.1 7.5 8.0 76 2.0 WSW 22 28 12 15 1032.4 - -
28/10:10pm 12.1 7.1 8.0 76 2.0 WSW 24 28 13 15 1032.4 - -
28/10:00pm 12.1 7.1 8.0 76 2.0 WSW 24 28 13 15 1032.4 - -
28/09:50pm 12.1 7.1 8.0 76 2.0 WSW 24 30 13 16 1032.3 - -
28/09:40pm 12.2 6.8 8.1 76 2.0 WSW 26 30 14 16 1032.2 - -
28/09:30pm 12.3 6.9 8.1 75 2.1 WSW 26 30 14 16 1032.2 - -
28/09:20pm 12.3 6.9 8.1 75 2.1 WSW 26 30 14 16 1032.2 - -
28/09:10pm 12.4 6.7 8.2 75 2.1 WSW 28 33 15 18 1032.2 - -
28/09:00pm 12.4 7.0 8.2 75 2.1 WSW 26 32 14 17 1032.0 - -
28/08:50pm 12.4 6.3 8.2 75 2.1 WSW 30 33 16 18 1031.9 - -
28/08:40pm 12.4 6.7 8.2 75 2.1 WSW 28 32 15 17 1032.0 - -
28/08:30pm 12.3 6.5 8.1 75 2.1 WSW 28 33 15 18 1032.0 - -
28/08:20pm 12.3 5.8 8.1 75 2.1 WSW 32 37 17 20 1031.8 - -
28/08:10pm 12.3 6.5 8.1 75 2.1 WSW 28 37 15 20 1031.8 - -
28/08:00pm 12.3 5.8 8.0 75 2.1 WSW 32 37 17 20 1031.9 - -
28/07:50pm 12.3 5.8 8.0 75 2.1 WSW 32 35 17 19 1032.0 - -
28/07:40pm 12.3 5.8 8.0 75 2.1 WSW 32 37 17 20 1031.9 - -
28/07:30pm 12.4 5.7 8.1 75 2.1 WSW 33 37 18 20 1031.8 - -
28/07:20pm 12.5 6.0 8.2 75 2.1 WSW 32 37 17 20 1031.9 - -
28/07:10pm 12.5 6.4 8.3 75 2.1 WSW 30 39 16 21 1031.9 - -
28/07:00pm 12.4 5.9 8.3 76 2.0 WSW 32 37 17 20 1031.8 - -
28/06:50pm 12.4 6.3 8.3 76 2.0 WSW 30 35 16 19 1031.7 - -
28/06:40pm 12.4 5.9 8.2 75 2.1 WSW 32 35 17 19 1031.7 - -
28/06:30pm 12.4 5.9 8.3 76 2.0 WSW 32 37 17 20 1031.7 - -
28/06:20pm 12.4 5.7 8.3 76 2.0 WSW 33 43 18 23 1031.6 - -
28/06:10pm 12.5 5.4 8.2 75 2.1 WSW 35 41 19 22 1031.3 - -
28/06:00pm 12.5 5.1 8.3 75 2.1 WSW 37 43 20 23 1031.1 - -
28/05:50pm 12.4 5.0 8.3 76 2.0 WSW 37 43 20 23 1031.1 - -
28/05:40pm 12.4 5.7 8.3 76 2.0 WSW 33 39 18 21 1031.1 - -
28/05:30pm 12.5 5.8 8.3 75 2.1 WSW 33 39 18 21 1031.1 - -
28/05:20pm 12.5 6.0 8.3 75 2.1 WSW 32 37 17 20 1030.9 - -
28/05:10pm 12.5 6.4 8.3 75 2.1 WSW 30 35 16 19 1030.9 - -
28/05:00pm 12.5 6.0 8.3 75 2.1 WSW 32 39 17 21 1030.8 - -
28/04:40pm 12.6 6.1 8.1 74 2.2 WSW 32 37 17 20 1030.6 - -
28/04:30pm 12.5 5.8 8.1 74 2.2 WSW 33 37 18 20 1030.4 - -
28/04:20pm 12.6 5.9 8.1 74 2.2 SW 33 39 18 21 1030.3 - -
28/04:10pm 12.6 5.5 8.1 74 2.2 SW 35 41 19 22 1030.3 - -
28/04:00pm 12.7 5.6 8.1 73 2.3 SW 35 41 19 22 1030.4 - -
28/03:50pm 12.7 6.0 8.1 73 2.3 SW 33 39 18 21 1030.4 - -
28/03:40pm 12.7 6.5 8.0 73 2.3 SW 30 37 16 20 1030.4 - -
28/03:30pm 12.8 6.1 8.1 73 2.3 SW 33 41 18 22 1030.3 - -
28/03:20pm 12.8 5.3 8.1 73 2.3 SW 37 44 20 24 1030.3 - -
28/03:10pm 13.0 6.0 8.5 74 2.2 SW 35 43 19 23 1030.3 - -
28/03:00pm 12.9 6.5 8.4 74 2.2 WSW 32 39 17 21 1030.2 - -
28/02:50pm 13.1 5.7 8.3 72 2.4 WSW 37 44 20 24 1030.1 - -
28/02:40pm 13.4 6.4 8.4 72 2.5 WSW 35 44 19 24 1030.1 - -
28/02:30pm 13.4 6.8 8.4 72 2.5 WSW 33 41 18 22 1030.1 - -
28/02:20pm 13.5 6.5 8.5 72 2.5 WSW 35 39 19 21 1030.1 - -
28/02:10pm 13.6 7.0 8.6 72 2.5 WSW 33 39 18 21 1030.0 - -
28/02:00pm 13.6 7.0 8.7 72 2.5 WSW 33 41 18 22 1030.0 - -
28/01:50pm 13.6 7.1 8.8 73 2.4 WSW 33 41 18 22 1029.9 - -
28/01:40pm 13.6 7.3 8.8 73 2.4 WSW 32 39 17 21 1029.9 - -
28/01:30pm 13.5 7.1 8.7 73 2.4 WSW 32 37 17 20 1030.0 - -
28/01:20pm 13.4 7.4 8.5 72 2.5 SW 30 35 16 19 1030.0 - -
28/01:10pm 13.1 7.0 8.4 73 2.3 SW 30 35 16 19 1029.8 - -
28/01:00pm 13.0 6.9 8.4 73 2.3 SW 30 37 16 20 1029.9 - -
28/12:50pm 13.0 6.5 8.3 73 2.3 SW 32 37 17 20 1030.0 - -
28/12:40pm 13.3 7.3 8.5 72 2.4 SW 30 35 16 19 1030.0 - -
28/12:30pm 13.3 6.8 8.2 71 2.5 SW 32 39 17 21 1030.0 - -
28/12:20pm 13.6 6.6 8.3 70 2.6 WSW 35 46 19 25 1030.1 - -
28/12:10pm 13.7 7.1 8.4 70 2.7 WSW 33 39 18 21 1030.1 - -
28/12:00pm 13.5 6.5 8.3 71 2.6 WSW 35 41 19 22 1030.1 - -
28/11:50am 13.5 6.8 8.2 70 2.6 WSW 33 39 18 21 1030.3 - -
28/11:40am 13.7 7.0 8.2 69 2.7 WSW 33 39 18 21 1030.3 - -
28/11:30am 13.8 6.8 8.3 69 2.7 WSW 35 41 19 22 1030.4 - -
28/11:20am 13.9 6.5 8.2 68 2.8 WSW 37 43 20 23 1030.5 - -
28/11:10am 13.9 6.1 8.3 69 2.8 WSW 39 46 21 25 1030.4 - -
28/11:00am 14.0 6.6 8.4 69 2.8 WSW 37 44 20 24 1030.6 - -
28/10:50am 13.9 6.1 8.4 69 2.8 WSW 39 44 21 24 1030.6 - -
28/10:40am 13.8 6.0 8.3 69 2.7 WSW 39 44 21 24 1030.7 - -
28/10:30am 13.8 6.4 8.4 70 2.7 WSW 37 44 20 24 1030.8 - -
28/10:20am 13.8 6.4 8.5 70 2.7 WSW 37 43 20 23 1030.8 - -
28/10:10am 13.9 6.5 8.5 70 2.7 WSW 37 44 20 24 1030.8 - -
28/10:00am 13.9 6.2 8.6 70 2.7 WSW 39 44 21 24 1030.9 - -
28/09:50am 14.0 7.1 8.8 71 2.6 WSW 35 41 19 22 1031.1 - -
28/09:40am 13.9 7.0 8.9 72 2.5 WSW 35 43 19 23 1031.1 - -
28/09:30am 13.9 7.0 8.9 72 2.5 WSW 35 41 19 22 1031.0 - -
28/09:20am 13.9 7.0 8.9 72 2.5 WSW 35 39 19 21 1030.9 - -
28/09:10am 13.7 6.8 8.9 73 2.4 WSW 35 43 19 23 1030.9 - -
28/09:00am 13.6 6.7 8.8 73 2.4 WSW 35 43 19 23 1030.8 - -
28/08:50am 13.6 6.7 8.8 73 2.4 WSW 35 46 19 25 1030.6 - -
28/08:40am 13.5 7.1 9.2 75 2.2 SW 33 44 18 24 1030.6 - -
28/08:30am 13.2 6.1 9.5 78 1.9 SW 37 44 20 24 1030.5 - -
28/08:20am 13.0 6.7 9.6 80 1.7 WSW 33 43 18 23 1030.4 - -
28/08:10am 12.9 6.2 9.6 80 1.7 WSW 35 44 19 24 1030.3 - -
28/08:00am 12.9 7.2 9.7 81 1.6 WSW 30 39 16 21 1030.4 - -
28/07:50am 12.8 6.7 9.7 81 1.6 WSW 32 37 17 20 1030.3 - -
28/07:40am 12.7 6.0 9.5 81 1.6 WSW 35 41 19 22 1030.2 - -
28/07:30am 12.7 6.5 9.5 81 1.6 WSW 32 39 17 21 1030.2 - -
28/07:20am 12.8 7.4 9.5 80 1.7 WSW 28 35 15 19 1030.1 - -
28/07:10am 12.9 7.6 9.7 81 1.6 WSW 28 33 15 18 1030.1 - -
28/07:00am 12.5 7.0 9.2 80 1.7 WSW 28 37 15 20 1029.9 - -
28/06:50am 12.5 6.3 9.3 81 1.6 WSW 32 41 17 22 1029.8 - -
28/06:40am 12.4 6.0 9.2 81 1.6 WSW 33 41 18 22 1029.6 - -
28/06:30am 12.3 5.8 9.0 80 1.7 WSW 33 39 18 21 1029.5 - -
28/06:20am 12.1 4.8 8.8 80 1.6 SW 37 44 20 24 1029.1 - -
28/06:10am 12.2 5.3 9.0 81 1.6 SW 35 44 19 24 1029.0 - -
28/06:00am 12.2 5.7 8.9 80 1.7 SW 33 39 18 21 1028.9 - -
28/05:50am 12.2 5.9 8.8 80 1.7 SW 32 39 17 21 1028.8 - -
28/05:40am 12.1 5.1 8.6 79 1.7 SW 35 41 19 22 1028.7 - -
28/05:30am 12.1 5.2 8.7 80 1.7 SW 35 44 19 24 1028.6 - -
28/05:20am 12.2 5.7 8.8 80 1.7 SW 33 44 18 24 1028.4 - -
28/05:10am 12.1 5.6 8.8 80 1.6 SW 33 39 18 21 1028.2 - -
28/05:00am 12.0 4.7 8.8 81 1.6 SW 37 44 20 24 1028.0 - -
28/04:50am 12.1 4.9 9.0 81 1.6 SW 37 44 20 24 1027.9 - -
28/04:40am 12.1 4.9 9.2 82 1.5 WSW 37 48 20 26 1027.8 - -
28/04:30am 12.2 5.8 9.2 82 1.5 WSW 33 41 18 22 1027.7 - -
28/04:20am 12.3 5.9 9.2 81 1.6 WSW 33 39 18 21 1027.6 - -
28/04:10am 12.5 6.3 9.3 81 1.6 WSW 32 39 17 21 1027.6 - -
28/04:00am 12.4 6.9 9.1 80 1.7 WSW 28 37 15 20 1027.6 - -
28/03:50am 12.5 6.6 9.1 80 1.7 WSW 30 37 16 20 1027.4 - -
28/03:40am 12.5 6.0 9.0 79 1.8 WSW 33 41 18 22 1027.3 - -
28/03:30am 12.4 5.9 8.8 79 1.8 WSW 33 43 18 23 1027.2 - -
28/03:20am 12.4 5.5 8.8 79 1.8 WSW 35 44 19 24 1027.1 - -
28/03:10am 12.2 5.2 8.6 78 1.8 SW 35 44 19 24 1027.0 - -
28/03:00am 12.1 4.8 8.8 80 1.6 SW 37 44 20 24 1026.9 - -
28/02:50am 12.1 5.6 9.0 81 1.6 SW 33 41 18 22 1027.0 - -
28/02:40am 12.0 5.2 9.1 82 1.5 SW 35 46 19 25 1026.8 - -
28/02:30am 12.0 5.6 9.2 83 1.4 SW 33 41 18 22 1026.7 - -
28/02:20am 12.0 5.6 9.3 83 1.4 WSW 33 43 18 23 1026.6 - -
28/02:10am 12.0 5.2 9.3 83 1.4 WSW 35 43 19 23 1026.5 - -
28/02:00am 12.0 5.2 9.2 83 1.4 WSW 35 50 19 27 1026.5 - -
28/01:50am 11.8 5.0 9.1 83 1.4 SW 35 43 19 23 1026.4 - -
28/01:40am 11.9 4.7 9.2 83 1.4 WSW 37 44 20 24 1026.4 - -
28/01:30am 11.9 4.7 9.1 83 1.4 WSW 37 43 20 23 1026.4 - -
28/01:20am 11.8 3.8 9.0 83 1.4 WSW 41 46 22 25 1026.2 - -
28/01:10am 11.7 4.1 8.9 83 1.4 WSW 39 46 21 25 1026.3 - -
28/12:50am 11.6 3.9 8.7 82 1.4 WSW 39 57 21 31 1026.0 - -
28/12:40am 11.6 2.9 8.5 81 1.5 WSW 44 54 24 29 1025.8 - -
28/12:30am 11.5 4.1 8.3 81 1.6 W 37 48 20 26 1025.9 - -
28/12:20am 11.5 4.1 8.2 80 1.6 W 37 44 20 24 1026.0 - -
28/12:10am 11.6 3.4 8.2 79 1.7 W 41 46 22 25 1025.9 - -
28/12:00am 11.7 3.9 8.2 79 1.7 W 39 48 21 26 1026.1 - -
 
Date/Time
EST
Temp
°C
App
Temp
°C
Dew
Point
Rel
Hum
%
Delta-T
°C
Wind Press
QNH
hPa
Press
MSL
hPa
Rain
since 9 am
mm
Dir
 
Spd
km/h
Gust
km/h
Spd
kts
Gust
kts
27/11:50pm 11.7 3.9 8.1 78 1.8 WSW 39 48 21 26 1025.9 - -
27/11:40pm 11.8 4.0 8.1 78 1.8 WSW 39 52 21 28 1025.7 - -
27/11:30pm 11.8 4.0 8.1 78 1.8 W 39 46 21 25 1025.9 - -
27/11:20pm 11.8 3.6 8.0 77 1.9 WSW 41 48 22 26 1025.8 - -
27/11:10pm 12.0 4.2 8.1 77 1.9 WSW 39 48 21 26 1025.8 - -
27/11:00pm 11.8 3.0 8.0 77 1.9 WSW 44 54 24 29 1025.5 - -
27/10:50pm 11.9 3.7 8.1 77 1.9 WSW 41 50 22 27 1025.6 - -
27/10:40pm 11.8 3.0 8.0 77 1.9 WSW 44 54 24 29 1025.6 - -
27/10:30pm 11.8 3.0 8.0 77 1.9 WSW 44 54 24 29 1025.7 - -
27/10:20pm 11.8 3.6 8.0 77 1.9 WSW 41 52 22 28 1025.8 - -
27/10:10pm 11.7 3.0 7.9 77 1.9 WSW 43 54 23 29 1025.8 - -
27/10:00pm 11.7 3.0 7.9 77 1.9 WSW 43 50 23 27 1025.9 - -
27/09:50pm 11.8 3.0 7.9 77 1.9 WSW 44 56 24 30 1025.7 - -
27/09:40pm 11.8 2.6 7.8 76 1.9 WSW 46 56 25 30 1025.7 - -
27/09:30pm 12.0 2.8 7.8 75 2.1 WSW 46 54 25 29 1025.7 - -
27/09:20pm 11.9 3.6 7.8 76 2.0 WSW 41 48 22 26 1025.8 - -
27/09:10pm 11.9 3.6 7.8 76 2.0 WSW 41 52 22 28 1025.8 - -
27/09:00pm 11.8 4.2 7.7 76 2.0 WSW 37 46 20 25 1026.0 - -
27/08:50pm 12.0 3.1 7.7 75 2.1 WSW 44 54 24 29 1025.8 - -
27/08:40pm 12.3 3.6 7.8 74 2.2 WSW 43 56 23 30 1025.7 - -
27/08:30pm 12.2 3.5 7.7 74 2.2 WSW 43 56 23 30 1025.6 - -
27/08:20pm 12.1 4.1 7.5 73 2.2 WSW 39 48 21 26 1025.7 - -
27/08:10pm 12.0 3.2 7.4 73 2.2 WSW 43 52 23 28 1025.5 - -
27/08:00pm 12.0 3.0 7.3 73 2.3 WSW 44 57 24 31 1025.3 - -
27/07:50pm 12.0 3.1 7.5 74 2.2 WSW 44 56 24 30 1025.2 - -
27/07:40pm 12.0 3.6 7.5 74 2.2 WSW 41 46 22 25 1025.4 - -
27/07:30pm 11.8 3.8 7.3 74 2.2 WSW 39 44 21 24 1025.5 - -
27/07:20pm 11.8 3.4 7.3 74 2.2 WSW 41 50 22 27 1025.4 - -
27/07:10pm 11.9 2.9 7.2 73 2.3 WSW 44 54 24 29 1025.1 - -
27/07:00pm 12.0 2.2 7.2 72 2.3 WSW 48 61 26 33 1024.8 - -
27/06:50pm 12.1 2.0 7.2 72 2.4 WSW 50 57 27 31 1024.7 - -
27/06:40pm 12.0 2.6 7.2 72 2.3 WSW 46 59 25 32 1024.6 - -
27/06:30pm 12.0 3.2 7.2 72 2.3 WSW 43 52 23 28 1024.8 - -
27/06:20pm 11.9 3.1 7.2 73 2.3 WSW 43 57 23 31 1024.7 - -
27/06:10pm 11.7 2.2 6.9 72 2.3 WSW 46 59 25 32 1024.6 - -
27/06:00pm 11.7 1.1 7.0 73 2.2 SW 52 61 28 33 1024.3 - -
27/05:50pm 11.6 2.6 7.2 74 2.1 WSW 44 59 24 32 1024.4 - -
27/05:40pm 11.5 2.5 7.2 75 2.1 WSW 44 52 24 28 1024.3 - -
27/05:30pm 11.5 2.6 7.0 74 2.2 WSW 43 50 23 27 1024.3 - -
27/05:20pm 11.7 2.7 7.1 73 2.2 WSW 44 56 24 30 1024.2 - -
27/05:10pm 12.0 3.2 7.1 72 2.4 WSW 43 57 23 31 1024.1 - -
27/05:00pm 11.9 3.4 6.9 71 2.4 WSW 41 50 22 27 1024.0 - -
27/04:50pm 11.7 3.9 6.6 71 2.4 WSW 37 50 20 27 1024.0 - -
27/04:40pm 11.5 2.4 6.1 69 2.5 WSW 43 54 23 29 1023.8 - -
27/04:30pm 11.8 1.0 5.9 67 2.8 WSW 52 69 28 37 1023.5 - -
27/04:20pm 12.1 1.6 5.5 64 3.1 SW 50 59 27 32 1023.2 - -
27/04:10pm 11.9 2.3 6.2 68 2.7 SW 46 57 25 31 1023.2 - -
27/04:00pm 11.9 3.2 6.1 67 2.7 WSW 41 50 22 27 1023.3 - -
27/03:50pm 12.0 1.9 5.8 66 2.9 WSW 48 67 26 36 1023.0 - -
27/03:40pm 12.3 2.6 5.7 64 3.1 SW 46 59 25 32 1023.0 - -
27/03:30pm 12.4 2.3 5.9 64 3.1 WSW 48 56 26 30 1022.8 - -
27/03:20pm 12.4 2.7 6.0 65 3.0 WSW 46 54 25 29 1022.7 - -
27/03:10pm 12.4 2.3 5.8 64 3.1 SW 48 56 26 30 1022.7 - -
27/03:00pm 12.4 2.3 5.6 63 3.2 WSW 48 57 26 31 1022.6 - -
27/02:50pm 12.4 2.2 5.4 62 3.3 WSW 48 61 26 33 1022.5 - -
27/02:40pm 12.4 2.6 5.3 62 3.3 SW 46 57 25 31 1022.4 - -
27/02:30pm 12.5 2.3 5.1 60 3.4 WSW 48 61 26 33 1022.3 - -
27/02:20pm 12.7 2.2 5.4 61 3.4 WSW 50 59 27 32 1022.1 - -
27/02:10pm 12.6 2.5 5.6 62 3.3 WSW 48 57 26 31 1022.1 - -
27/02:00pm 12.7 3.4 5.8 63 3.2 WSW 44 56 24 30 1022.0 - -
27/01:50pm 12.6 2.5 5.7 63 3.2 WSW 48 56 26 30 1022.0 - -
27/01:40pm 12.6 2.9 5.7 63 3.2 WSW 46 56 25 30 1022.0 - -
27/01:30pm 12.5 2.4 5.7 63 3.2 WSW 48 57 26 31 1021.8 - -
27/01:20pm 12.5 3.3 6.2 65 3.0 WSW 44 57 24 31 1021.9 - -
27/01:10pm 12.4 2.8 6.4 67 2.9 WSW 46 57 25 31 1021.7 - -
27/01:00pm 12.5 2.6 6.4 66 2.9 WSW 48 59 26 32 1021.6 - -
27/12:50pm 12.6 3.3 6.0 64 3.1 WSW 44 54 24 29 1021.7 - -
27/12:40pm 12.5 3.8 6.0 64 3.1 WSW 41 50 22 27 1021.7 - -
27/12:30pm 12.5 4.6 6.2 65 3.0 WSW 37 50 20 27 1021.9 - -
27/12:20pm 12.5 4.5 5.9 64 3.1 WSW 37 46 20 25 1022.0 - -
27/12:10pm 12.4 2.6 5.4 62 3.3 WSW 46 57 25 31 1021.8 - -
27/12:00pm 12.4 3.2 5.6 63 3.2 WSW 43 54 23 29 1021.9 - -
27/11:50am 12.3 3.9 5.6 63 3.1 WSW 39 46 21 25 1022.0 - -
27/11:40am 12.3 3.2 5.7 64 3.1 SW 43 52 23 28 1022.1 - -
27/11:30am 12.3 3.1 5.5 63 3.2 SW 43 52 23 28 1022.1 - -
27/11:20am 12.4 3.2 5.5 63 3.2 WSW 43 54 23 29 1022.1 - -
27/11:10am 12.4 3.1 4.9 60 3.4 SW 43 52 23 28 1022.1 - -
27/11:00am 12.4 2.9 5.0 60 3.4 SW 44 56 24 30 1022.2 - -
27/10:50am 12.4 3.1 5.2 61 3.3 SW 43 54 23 29 1022.2 - -
27/10:40am 12.2 1.9 4.8 60 3.4 SW 48 57 26 31 1022.0 - -
27/10:30am 12.1 3.8 5.9 66 2.9 SW 39 56 21 30 1022.7 - -
27/10:20am 11.7 4.1 5.7 66 2.8 SW 35 43 19 23 1022.6 - -
27/10:10am 12.1 4.5 5.8 65 2.9 WSW 35 44 19 24 1022.6 - -
27/10:00am 12.1 2.6 4.9 61 3.3 SW 44 56 24 30 1022.3 - -
27/09:50am 12.1 1.3 4.3 59 3.5 SW 50 61 27 33 1022.3 - -
27/09:40am 12.5 3.0 5.1 60 3.4 SW 44 57 24 31 1022.3 - -
27/09:20am 12.3 1.6 4.8 60 3.4 SW 50 59 27 32 1022.7 - -
27/09:10am 12.0 0.9 4.6 60 3.4 SW 52 61 28 33 1022.5 - -
27/09:00am 11.9 0.1 4.7 61 3.3 SW 56 67 30 36 1022.4 - -
27/08:50am 12.0 1.3 4.6 60 3.4 SW 50 61 27 33 1021.5 - -
27/08:40am 12.0 1.3 4.4 59 3.4 SW 50 59 27 32 1020.8 - -
27/08:30am 11.6 0.9 4.4 61 3.3 SW 50 59 27 32 1020.7 - -
27/08:20am 11.1 0.4 4.6 64 2.9 SW 50 61 27 33 1020.7 - -
27/08:10am 11.2 0.9 4.6 64 3.0 SW 48 61 26 33 1021.8 - -
27/08:00am 10.9 -0.4 5.2 68 2.6 SW 54 67 29 36 1021.3 - -
27/07:50am 10.7 1.3 5.5 70 2.4 SW 44 56 24 30 1020.5 - -
27/07:40am 10.6 -0.4 5.1 69 2.5 WSW 52 63 28 34 1020.1 - -
27/07:30am 10.5 -1.3 4.6 67 2.7 SW 56 76 30 41 1020.2 - -
27/07:20am 10.9 -0.5 4.7 65 2.8 SW 54 69 29 37 1020.8 - -
27/07:10am 10.7 -0.4 4.6 66 2.7 SSW 52 63 28 34 1021.6 - -
27/07:00am 10.6 -0.1 4.7 67 2.7 SW 50 61 27 33 1019.9 - -
27/06:50am 10.9 -0.7 4.0 62 3.1 SW 54 67 29 36 1019.7 - -
27/06:40am 10.7 -1.2 4.1 63 2.9 SW 56 69 30 37 1019.6 - -
27/06:30am 10.5 -2.0 4.2 65 2.8 SW 59 76 32 41 1019.4 - -
27/06:20am 10.2 -1.6 4.8 69 2.4 SW 56 70 30 38 1019.0 - -
27/06:10am 9.9 -0.7 4.9 71 2.3 SW 50 61 27 33 1019.1 - -
27/06:00am 9.6 -1.0 4.9 72 2.1 SW 50 61 27 33 1018.8 - -
27/05:50am 9.3 -0.6 4.6 72 2.1 SW 46 56 25 30 1018.8 - -
27/05:40am 9.2 -1.5 4.5 72 2.1 SW 50 67 27 36 1018.7 - -
27/05:30am 9.4 -2.6 4.7 72 2.1 WSW 57 72 31 39 1018.2 - -
27/05:20am 9.7 -2.1 4.7 71 2.2 WSW 56 72 30 39 1017.9 - -
27/05:10am 9.9 0.3 4.5 69 2.4 WSW 44 56 24 30 1018.1 - -
27/04:50am 9.7 -1.8 4.3 69 2.4 SW 54 63 29 34 1018.5 - -
27/04:40am 9.5 -2.4 4.4 70 2.3 SW 56 69 30 37 1017.8 - -
27/04:30am 9.2 -1.2 4.4 72 2.1 SW 48 59 26 32 1017.9 - -
27/04:20am 9.0 -2.9 4.3 72 2.1 WSW 56 70 30 38 1017.3 - -
27/04:10am 8.7 -4.2 3.9 72 2.1 WSW 61 74 33 40 1016.9 - -
27/04:00am 9.2 -4.8 4.0 70 2.3 WSW 67 87 36 47 1016.8 - -
27/03:50am 9.5 -2.4 4.1 69 2.4 WSW 56 67 30 36 1016.5 - -
27/03:40am 8.9 -3.7 3.7 70 2.3 WSW 59 78 32 42 1016.4 - -
27/03:30am 9.7 -2.4 4.4 69 2.4 WSW 57 83 31 45 1016.4 - -
27/03:20am 9.6 -2.5 4.4 70 2.3 WSW 57 70 31 38 1016.3 - -
27/03:10am 9.5 -2.0 4.5 71 2.2 WSW 54 67 29 36 1016.3 - -
27/03:00am 9.3 -2.7 4.6 72 2.1 SW 57 69 31 37 1016.2 - -
27/02:50am 9.2 -2.7 4.5 72 2.1 SW 56 78 30 42 1016.6 - -
27/02:40am 9.2 -1.9 4.6 73 2.0 SW 52 61 28 33 1016.2 - -
27/02:30am 9.0 -1.8 4.3 72 2.1 WSW 50 61 27 33 1016.1 - -
27/02:20am 9.3 -4.3 4.5 72 2.1 SW 65 82 35 44 1015.8 - -
27/02:10am 9.7 -1.6 5.3 74 2.0 WSW 54 85 29 46 1015.9 - -
27/02:00am 9.7 -0.1 5.4 74 2.0 WSW 46 63 25 34 1016.1 - -
27/01:50am 9.4 -0.4 5.1 74 1.9 WSW 46 59 25 32 1015.9 - -
27/01:40am 9.1 -1.6 4.8 74 1.9 WSW 50 63 27 34 1015.9 - -
27/01:30am 9.3 -2.1 4.9 74 2.0 WSW 54 65 29 35 1015.6 - -
27/01:20am 9.1 -1.6 4.7 74 2.0 WSW 50 61 27 33 1015.5 - -
27/01:10am 9.6 -1.8 4.9 72 2.1 WSW 54 74 29 40 1015.5 - -
27/01:00am 9.2 -1.5 4.4 72 2.1 WSW 50 61 27 33 1015.3 - -
27/12:50am 9.0 -2.5 4.3 72 2.1 WSW 54 70 29 38 1015.1 - -
27/12:40am 9.0 -3.5 4.3 72 2.1 WSW 59 76 32 41 1015.0 - -
27/12:30am 9.7 -2.6 5.2 73 2.0 WSW 59 80 32 43 1014.8 - -
27/12:20am 9.7 -1.6 5.2 73 2.0 W 54 63 29 34 1014.6 - -
27/12:10am 9.7 -2.0 5.1 73 2.1 W 56 65 30 35 1014.6 - -
27/12:00am 9.7 -2.0 5.1 73 2.1 WSW 56 69 30 37 1014.4 - -
 
Date/Time
EST
Temp
°C
App
Temp
°C
Dew
Point
Rel
Hum
%
Delta-T
°C
Wind Press
QNH
hPa
Press
MSL
hPa
Rain
since 9 am
mm
Dir
 
Spd
km/h
Gust
km/h
Spd
kts
Gust
kts
26/11:50pm 9.6 -2.1 5.1 73 2.0 WSW 56 72 30 39 1014.4 - -
26/11:40pm 9.8 -2.5 5.2 73 2.1 WSW 59 74 32 40 1014.2 - -
26/11:30pm 9.8 -1.2 5.2 73 2.1 WSW 52 63 28 34 1014.3 - -
26/11:20pm 9.6 -1.4 4.9 72 2.1 WSW 52 63 28 34 1014.5 - -
26/11:10pm 9.4 -2.6 4.5 71 2.2 WSW 57 70 31 38 1014.3 - -
26/11:00pm 9.8 -2.6 4.7 70 2.3 WSW 59 76 32 41 1014.3 - -
26/10:50pm 10.2 -2.2 4.9 69 2.4 W 59 72 32 39 1014.2 - -
26/10:40pm 10.3 -1.5 4.9 69 2.4 W 56 67 30 36 1014.2 - -
26/10:30pm 10.2 -1.8 4.8 69 2.4 W 57 69 31 37 1014.0 - -
26/10:20pm 10.1 -2.3 4.8 69 2.4 WSW 59 70 32 38 1013.9 - -
26/10:10pm 10.2 -2.6 4.7 68 2.5 WSW 61 76 33 41 1013.7 - -
26/10:00pm 10.4 -2.7 4.8 68 2.5 W 63 78 34 42 1013.5 - -
26/09:50pm 10.3 -2.5 4.7 68 2.5 W 61 78 33 42 1013.3 - -
26/09:40pm 10.2 -2.2 4.7 68 2.5 W 59 72 32 39 1013.4 - -

Other Formats:

Comma delimited format used in spreadsheet applications
http://www.bom.gov.au/fwo/IDV60801/IDV60801.55039.axf

JavaScript Object Notation format (JSON) in row-major order
http://www.bom.gov.au/fwo/IDV60801/IDV60801.55039.json